This is the latest recevied weather packets stored in our database for station/object K6POO-1. If no packets are shown the sender has not sent any weather packets the latest 10 day(s).
| Time | Temp. | Humidity | Pressure | Rain* | Wind** | Luminosity | Snow |
|---|---|---|---|---|---|---|---|
| 1778204522 | 16.67° C | 72% | 1016.9 hPa | 0 mm | - | 59 W/m² | - |
| 1778204218 | 15.56° C | 74% | 1016.9 hPa | 0 mm | - | 72 W/m² | - |
| 1778203915 | 16.11° C | 71% | 1016.9 hPa | 0 mm | - | 84 W/m² | - |
| 1778203612 | 16.67° C | 70% | 1016.9 hPa | 0 mm | - | 94 W/m² | - |
| 1778203309 | 16.67° C | 72% | 1016.9 hPa | 0 mm | - | 106 W/m² | - |
| 1778203008 | 16.11° C | 72% | 1016.9 hPa | 0 mm | - | 120 W/m² | - |
| 1778202705 | 16.67° C | 70% | 1017 hPa | 0 mm | - | 134 W/m² | - |
| 1778202401 | 16.67° C | 71% | 1016.9 hPa | 0 mm | - | 151 W/m² | - |
| 1778202099 | 16.11° C | 72% | 1017 hPa | 0 mm | - | 167 W/m² | - |
| 1778201796 | 16.11° C | 72% | 1017.1 hPa | 0 mm | - | 183 W/m² | - |
| 1778201492 | 16.67° C | 69% | 1017.2 hPa | 0 mm | - | 203 W/m² | - |
| 1778201188 | 16.67° C | 70% | 1016.9 hPa | 0 mm | - | 220 W/m² | - |
| 1778200885 | 17.22° C | 68% | 1017.3 hPa | 0 mm | - | 238 W/m² | - |
| 1778200581 | 17.22° C | 67% | 1017 hPa | 0 mm | - | 258 W/m² | - |
| 1778200279 | 17.78° C | 66% | 1017.2 hPa | 0 mm | - | 277 W/m² | - |
| 1778199975 | 17.22° C | 67% | 1017 hPa | 0 mm | - | 297 W/m² | - |
| 1778199673 | 17.22° C | 66% | 1017.1 hPa | 0 mm | - | 317 W/m² | - |
| 1778199368 | 17.22° C | 67% | 1017 hPa | 0 mm | - | 336 W/m² | - |
| 1778199064 | 16.67° C | 69% | 1017.2 hPa | 0 mm | - | 356 W/m² | - |
| 1778198760 | 16.67° C | 68% | 1017.3 hPa | 0 mm | - | 377 W/m² | - |
| 1778198458 | 16.67° C | 69% | 1017.2 hPa | 0 mm | - | 397 W/m² | - |
| 1778198155 | 16.67° C | 70% | 1017.1 hPa | 0 mm | - | 417 W/m² | - |
| 1778197852 | 16.67° C | 68% | 1017.3 hPa | 0 mm | - | 439 W/m² | - |
| 1778197548 | 17.22° C | 65% | 1017.1 hPa | 0 mm | - | 458 W/m² | - |
| 1778197245 | 17.78° C | 63% | 1017.2 hPa | 0 mm | - | 477 W/m² | - |
* Rain latest hour (hover to see other rain measurements)
** Current wind speed in m/s (hover to see current wind gust speed)